Time;durP1;ratioP1;P1;durP2;ratioP2;P2;SDS_P1;SDS_P2;PMS_P1;PMS_P2;Temp;Humidity;BMP_temperature;BMP_pressure;BME280_temperature;BME280_humidity;BME280_pressure;Samples;Min_cycle;Max_cycle;Signal;HPM_P1;HPM_P2
2022/10/09 00:01:36;;;;;;;17.50;4.53;;;;;;;-145.69;100.00;72719.91;5054477;28;20227;-79
2022/10/09 00:04:04;;;;;;;8.27;3.40;;;;;;;-145.69;100.00;72731.84;5054372;28;20230;-80
2022/10/09 00:06:32;;;;;;;7.47;3.50;;;;;;;-145.69;100.00;72735.81;5054696;28;20214;-80
2022/10/09 00:09:00;;;;;;;8.53;3.20;;;;;;;-145.69;100.00;72741.78;5074814;28;20199;-79
2022/10/09 00:11:28;;;;;;;7.97;3.20;;;;;;;-145.69;100.00;72735.81;5074496;28;20215;-80
2022/10/09 00:13:56;;;;;;;13.97;3.63;;;;;;;-145.69;100.00;72733.84;5074307;28;20665;-79
2022/10/09 00:16:24;;;;;;;10.83;3.50;;;;;;;-145.69;100.00;72743.78;5073561;28;20575;-78
2022/10/09 00:18:53;;;;;;;12.53;3.30;;;;;;;-145.69;100.00;72745.78;5072017;28;20206;-79
2022/10/09 00:21:22;;;;;;;12.93;3.37;;;;;;;-145.69;100.00;72751.75;5054039;28;20665;-80
2022/10/09 00:23:50;;;;;;;7.40;3.03;;;;;;;-145.69;100.00;72751.75;5054287;28;20223;-79
2022/10/09 00:26:17;;;;;;;10.57;3.03;;;;;;;-145.69;100.00;72769.66;5054220;28;20210;-80
2022/10/09 00:28:45;;;;;;;9.57;2.73;;;;;;;-145.69;100.00;72791.56;5054374;28;20211;-79
2022/10/09 00:31:12;;;;;;;7.60;2.97;;;;;;;-145.69;100.00;72791.56;5058325;28;20201;-79
2022/10/09 00:33:39;;;;;;;12.43;3.37;;;;;;;-145.69;100.00;72757.72;5074351;28;20199;-79
2022/10/09 00:36:10;;;;;;;9.50;3.07;;;;;;;-145.69;100.00;72775.63;5074003;28;20290;-79
2022/10/09 00:38:37;;;;;;;12.57;3.10;;;;;;;-145.69;100.00;72775.63;5073889;28;20199;-79
2022/10/09 00:41:03;;;;;;;11.80;3.40;;;;;;;-145.69;100.00;72751.75;5073754;28;20214;-79
2022/10/09 00:43:39;;;;;;;12.70;3.50;;;;;;;-145.69;100.00;72723.88;5064744;28;20733;-79
2022/10/09 00:46:06;;;;;;;9.57;3.87;;;;;;;-145.69;100.00;72684.06;5053867;28;20203;-79
2022/10/09 00:48:33;;;;;;;14.60;3.30;;;;;;;-145.69;100.00;72703.97;5053600;28;20295;-79
2022/10/09 00:51:01;;;;;;;12.33;3.33;;;;;;;-145.69;100.00;72688.06;5053919;28;20211;-79
2022/10/09 00:53:30;;;;;;;12.57;3.20;;;;;;;-145.69;100.00;72664.16;5053695;28;20203;-79
2022/10/09 00:55:58;;;;;;;9.93;3.03;;;;;;;-145.69;100.00;72658.19;5061172;28;20210;-79
2022/10/09 00:58:25;;;;;;;13.50;3.77;;;;;;;-145.69;100.00;72636.31;5033574;28;20200;-80
2022/10/09 01:00:53;;;;;;;9.13;3.33;;;;;;;-145.69;100.00;72622.38;5033614;28;20295;-81
2022/10/09 01:03:19;;;;;;;9.73;4.10;;;;;;;-145.69;100.00;72628.34;5033693;28;20203;-80
2022/10/09 01:05:56;;;;;;;10.67;3.70;;;;;;;-145.69;100.00;72612.41;5033349;28;20323;-80
2022/10/09 01:08:28;;;;;;;13.53;4.30;;;;;;;-145.69;100.00;72606.44;5066558;28;20283;-80
2022/10/09 01:11:03;;;;;;;16.52;5.72;;;;;;;-145.69;100.00;72582.56;5072530;28;20438;-80
2022/10/09 01:13:36;;;;;;;19.10;5.33;;;;;;;-145.69;100.00;72566.63;5073109;28;20203;-79
2022/10/09 01:16:07;;;;;;;11.47;4.30;;;;;;;-145.69;100.00;72560.66;5073360;28;20202;-80
2022/10/09 01:18:42;;;;;;;16.73;4.70;;;;;;;-145.69;100.00;72560.66;5069755;28;20235;-80
2022/10/09 01:21:13;;;;;;;16.07;4.67;;;;;;;-145.69;100.00;72548.72;5053451;28;20199;-80
2022/10/09 01:23:50;;;;;;;14.17;4.83;;;;;;;-145.69;100.00;72540.75;5053056;28;20668;-80
2022/10/09 01:26:38;;;;;;;12.70;5.03;;;;;;;-145.69;100.00;72548.72;5053312;28;20205;-80
2022/10/09 01:29:09;;;;;;;17.63;5.20;;;;;;;-145.69;100.00;72544.75;5053133;28;20200;-80
2022/10/09 01:31:40;;;;;;;19.37;5.37;;;;;;;-145.69;100.00;72520.84;5065135;28;20209;-80
2022/10/09 01:34:08;;;;;;;16.10;5.63;;;;;;;-145.69;100.00;72526.81;5073506;28;20209;-81
2022/10/09 01:36:36;;;;;;;16.00;6.30;;;;;;;-145.69;100.00;72504.94;5073160;28;20205;-80
2022/10/09 01:39:06;;;;;;;12.00;5.70;;;;;;;-145.69;100.00;72502.94;5073406;28;20205;-81
2022/10/09 01:41:33;;;;;;;22.80;7.67;;;;;;;-145.69;100.00;72496.97;5072735;28;20205;-80
2022/10/09 01:43:59;;;;;;;23.97;7.50;;;;;;;-145.69;100.00;72473.09;5056998;28;20907;-80
2022/10/09 01:46:31;;;;;;;22.57;7.43;;;;;;;-145.69;100.00;72459.16;5053349;28;20218;-80
2022/10/09 01:49:10;;;;;;;22.53;7.50;;;;;;;-145.69;100.00;72457.16;5053216;28;20203;-80
2022/10/09 01:51:46;;;;;;;24.03;7.10;;;;;;;-145.69;100.00;72461.13;5052800;28;20203;-81
2022/10/09 01:54:15;;;;;;;24.30;7.00;;;;;;;-145.69;100.00;72443.22;5053141;28;20198;-80
2022/10/09 01:56:47;;;;;;;21.23;7.45;;;;;;;-145.69;100.00;72419.34;5069731;28;20943;-80
2022/10/09 01:59:18;;;;;;;14.77;6.27;;;;;;;-145.69;100.00;72409.38;5073282;28;20198;-79
2022/10/09 02:01:47;;;;;;;15.40;5.37;;;;;;;-145.69;100.00;72409.38;5072734;28;20216;-80
2022/10/09 02:04:16;;;;;;;15.67;5.53;;;;;;;-145.69;100.00;72413.38;5052325;28;20310;-80
2022/10/09 02:06:46;;;;;;;14.43;5.03;;;;;;;-145.69;100.00;72417.34;5052561;28;20198;-80
2022/10/09 02:09:15;;;;;;;13.33;5.37;;;;;;;-145.69;100.00;72437.25;5072623;28;20203;-80
2022/10/09 02:11:47;;;;;;;13.93;5.33;;;;;;;-145.69;100.00;72425.31;5070529;28;20213;-80
2022/10/09 02:14:13;;;;;;;14.97;5.20;;;;;;;-145.69;100.00;72409.38;5052861;28;20222;-80
2022/10/09 02:16:44;;;;;;;11.90;5.13;;;;;;;-145.69;100.00;72409.38;5061438;28;20293;-80
2022/10/09 02:19:19;;;;;;;18.67;4.90;;;;;;;-145.69;100.00;72413.38;5072632;28;20214;-80
2022/10/09 02:21:50;;;;;;;14.70;5.83;;;;;;;-145.69;100.00;72399.44;5072607;28;20204;-79
2022/10/09 02:24:19;;;;;;;13.77;4.33;;;;;;;-145.69;100.00;72409.38;5072678;28;20229;-80
2022/10/09 02:26:46;;;;;;;13.73;4.60;;;;;;;-145.69;100.00;72421.34;5072406;28;20289;-80
2022/10/09 02:29:15;;;;;;;15.47;5.57;;;;;;;-145.69;100.00;72421.34;5060222;28;20223;-79
2022/10/09 02:31:43;;;;;;;13.07;5.33;;;;;;;-145.69;100.00;72431.28;5052364;28;20204;-80
2022/10/09 02:34:14;;;;;;;17.20;5.30;;;;;;;-145.69;100.00;72425.31;5052397;28;20673;-80
2022/10/09 02:36:41;;;;;;;16.47;5.03;;;;;;;-145.69;100.00;72429.28;5052336;28;20203;-81
2022/10/09 02:39:08;;;;;;;17.17;5.77;;;;;;;-145.69;100.00;72417.34;5055141;28;20237;-79
2022/10/09 02:41:35;;;;;;;15.47;5.60;;;;;;;-145.69;100.00;72425.31;5056763;28;20650;-80
2022/10/09 02:44:02;;;;;;;17.00;5.70;;;;;;;-145.69;100.00;72419.34;5055940;28;20206;-80
2022/10/09 02:46:29;;;;;;;21.00;6.03;;;;;;;-145.69;100.00;72415.38;5056124;28;20542;-79
2022/10/09 02:48:55;;;;;;;19.83;5.67;;;;;;;-145.69;100.00;72427.31;5056146;28;20250;-79
2022/10/09 02:51:24;;;;;;;25.50;6.57;;;;;;;-145.69;100.00;72421.34;5056083;28;20207;-80
2022/10/09 02:53:51;;;;;;;16.37;6.20;;;;;;;-145.69;100.00;72425.31;5056131;28;20218;-80
2022/10/09 02:56:18;;;;;;;11.07;5.80;;;;;;;-145.69;100.00;72413.38;5055922;28;20286;-79
2022/10/09 02:58:45;;;;;;;20.57;6.10;;;;;;;-145.69;100.00;72413.38;5056044;28;20203;-79
2022/10/09 03:01:11;;;;;;;16.73;6.67;;;;;;;-145.69;100.00;72433.28;5055969;28;20234;-79
2022/10/09 03:03:38;;;;;;;21.17;7.43;;;;;;;-145.69;100.00;72423.31;5055732;28;20204;-80
2022/10/09 03:06:08;;;;;;;18.47;6.67;;;;;;;-145.69;100.00;72411.38;5063947;28;20656;-79
2022/10/09 03:08:38;;;;;;;12.70;6.70;;;;;;;-145.69;100.00;72409.38;5053471;28;20199;-80
2022/10/09 03:11:08;;;;;;;19.23;7.17;;;;;;;-145.69;100.00;72413.38;5055242;28;20199;-80
2022/10/09 03:13:34;;;;;;;23.13;7.23;;;;;;;-145.69;100.00;72407.41;5056121;28;20230;-80
2022/10/09 03:16:04;;;;;;;18.07;6.47;;;;;;;-145.69;100.00;72411.38;5056119;28;20333;-80
2022/10/09 03:18:31;;;;;;;14.80;6.17;;;;;;;-145.69;100.00;72421.34;5067104;28;20238;-80
2022/10/09 03:20:57;;;;;;;15.90;6.73;;;;;;;-145.69;100.00;72425.31;5075313;28;20705;-80
2022/10/09 03:23:24;;;;;;;17.97;6.40;;;;;;;-145.69;100.00;72433.28;5075333;28;20205;-80
2022/10/09 03:25:57;;;;;;;23.20;7.17;;;;;;;-145.69;100.00;72433.28;5075150;28;20226;-79
2022/10/09 03:28:23;;;;;;;12.77;6.23;;;;;;;-145.69;100.00;72441.25;5075439;28;20289;-80
2022/10/09 03:30:50;;;;;;;21.43;6.73;;;;;;;-145.69;100.00;72437.25;5061951;28;20199;-80
2022/10/09 03:33:17;;;;;;;22.77;7.50;;;;;;;-145.69;100.00;72429.28;5055644;28;20210;-80
2022/10/09 03:35:45;;;;;;;16.90;6.97;;;;;;;-145.69;100.00;72441.25;5055327;28;20227;-80
2022/10/09 03:38:11;;;;;;;20.10;6.70;;;;;;;-145.69;100.00;72425.31;5054803;28;20203;-79
2022/10/09 03:40:38;;;;;;;15.10;6.27;;;;;;;-145.69;100.00;72453.19;5054974;28;20205;-80
2022/10/09 03:43:06;;;;;;;16.37;6.17;;;;;;;-145.69;100.00;72469.09;5072038;28;20195;-80
2022/10/09 03:45:33;;;;;;;22.53;6.30;;;;;;;-145.69;100.00;72453.19;5075132;28;20313;-79
2022/10/09 03:47:59;;;;;;;13.87;5.20;;;;;;;-145.69;100.00;72461.13;5074736;28;20209;-80
2022/10/09 03:50:26;;;;;;;15.57;5.97;;;;;;;-145.69;100.00;72479.06;5073633;28;20194;-79
2022/10/09 03:52:53;;;;;;;16.00;5.60;;;;;;;-145.69;100.00;72485.03;5074807;28;20209;-80
2022/10/09 03:55:19;;;;;;;18.73;5.50;;;;;;;-145.69;100.00;72485.03;5054920;28;20203;-79
2022/10/09 03:57:46;;;;;;;10.70;5.07;;;;;;;-145.69;100.00;72491.00;5054922;28;20221;-80
2022/10/09 04:00:15;;;;;;;10.70;4.50;;;;;;;-145.69;100.00;72489.00;5054734;28;20199;-79
2022/10/09 04:02:42;;;;;;;10.67;4.60;;;;;;;-145.69;100.00;72508.91;5054737;28;20199;-79
2022/10/09 04:05:09;;;;;;;8.93;4.43;;;;;;;-145.69;100.00;72508.91;5057099;28;20247;-79
2022/10/09 04:07:35;;;;;;;9.53;5.33;;;;;;;-145.69;100.00;72500.94;5074499;28;20237;-79
2022/10/09 04:10:03;;;;;;;20.53;4.80;;;;;;;-145.69;100.00;72508.91;5074532;28;20206;-79
2022/10/09 04:12:30;;;;;;;13.60;5.10;;;;;;;-145.69;100.00;72508.91;5074478;28;20203;-79
2022/10/09 04:14:56;;;;;;;19.03;5.40;;;;;;;-145.69;100.00;72518.88;5060891;28;20203;-79
2022/10/09 04:17:24;;;;;;;13.30;5.07;;;;;;;-145.69;100.00;72538.78;5034083;28;20631;-80
2022/10/09 04:19:51;;;;;;;14.47;5.73;;;;;;;-145.69;100.00;72524.84;5033992;28;20201;-79
2022/10/09 04:22:18;;;;;;;17.17;5.47;;;;;;;-145.69;100.00;72524.84;5034517;28;20208;-79
2022/10/09 04:24:45;;;;;;;11.57;5.20;;;;;;;-145.69;100.00;72540.75;5034028;28;20204;-79
2022/10/09 04:27:11;;;;;;;15.97;5.40;;;;;;;-145.69;100.00;72520.84;5067921;28;20285;-79
2022/10/09 04:29:38;;;;;;;11.57;5.33;;;;;;;-145.69;100.00;72532.78;5074207;28;20213;-79
2022/10/09 04:32:05;;;;;;;8.33;4.93;;;;;;;-145.69;100.00;72534.78;5073675;28;20234;-79
2022/10/09 04:34:33;;;;;;;19.50;5.30;;;;;;;-145.69;100.00;72524.84;5073899;28;20646;-79
2022/10/09 04:36:59;;;;;;;16.50;5.50;;;;;;;-145.69;100.00;72528.81;5074077;28;20195;-79
2022/10/09 04:39:26;;;;;;;14.70;5.83;;;;;;;-145.69;100.00;72526.81;5057094;28;20191;-79
2022/10/09 04:41:52;;;;;;;13.70;5.07;;;;;;;-145.69;100.00;72516.88;5053780;28;20203;-79
2022/10/09 04:44:19;;;;;;;14.60;5.47;;;;;;;-145.69;100.00;72524.84;5053885;28;20202;-79
2022/10/09 04:46:45;;;;;;;11.67;5.10;;;;;;;-145.69;100.00;72528.81;5053780;28;20593;-79
2022/10/09 04:49:13;;;;;;;13.63;5.20;;;;;;;-145.69;100.00;72518.88;5053558;28;20280;-79
2022/10/09 04:51:41;;;;;;;15.30;5.53;;;;;;;-145.69;100.00;72516.88;5033736;28;20214;-79
2022/10/09 04:54:07;;;;;;;17.90;5.70;;;;;;;-145.69;100.00;72512.91;5033792;28;20200;-79
2022/10/09 04:56:34;;;;;;;17.07;5.80;;;;;;;-145.69;100.00;72518.88;5033530;28;20578;-79
2022/10/09 04:59:01;;;;;;;13.80;5.40;;;;;;;-145.69;100.00;72504.94;5033888;28;20614;-79
2022/10/09 05:01:28;;;;;;;17.95;6.35;;;;;;;-145.69;100.00;72510.91;5035459;28;20529;-79
2022/10/09 05:03:55;;;;;;;16.03;5.87;;;;;;;-145.69;100.00;72516.88;5073378;28;20282;-79
2022/10/09 05:06:23;;;;;;;12.37;5.23;;;;;;;-145.69;100.00;72506.91;5073741;28;20233;-79
2022/10/09 05:08:53;;;;;;;16.87;5.30;;;;;;;-145.69;100.00;72494.97;5073199;28;20730;-78
2022/10/09 05:11:22;;;;;;;18.20;5.07;;;;;;;-145.69;100.00;72504.94;5073115;28;20289;-79
2022/10/09 05:13:51;;;;;;;12.87;5.40;;;;;;;-145.69;100.00;72504.94;5049777;28;20274;-79
2022/10/09 05:16:20;;;;;;;13.30;5.63;;;;;;;-145.69;100.00;72524.84;5073111;28;20248;-79
2022/10/09 05:18:48;;;;;;;14.50;4.97;;;;;;;-145.69;100.00;72532.78;5073044;28;20299;-79
2022/10/09 05:21:19;;;;;;;21.20;4.90;;;;;;;-145.69;100.00;72534.78;5073344;28;20198;-78
2022/10/09 05:23:46;;;;;;;17.13;5.63;;;;;;;-145.69;100.00;72524.84;5072697;28;20252;-78
2022/10/09 05:26:16;;;;;;;11.63;5.20;;;;;;;-145.69;100.00;72518.88;5072681;28;20313;-78
2022/10/09 05:28:43;;;;;;;15.10;5.53;;;;;;;-145.69;100.00;72528.81;5073108;28;20209;-79
2022/10/09 05:31:15;;;;;;;16.07;5.60;;;;;;;-145.69;100.00;72524.84;5073383;28;20218;-78
2022/10/09 05:33:41;;;;;;;8.23;3.93;;;;;;;-145.69;100.00;72512.91;5053821;28;20726;-78
2022/10/09 05:36:08;;;;;;;14.13;4.57;;;;;;;-145.69;100.00;72538.78;5053010;28;20217;-79
2022/10/09 05:38:34;;;;;;;11.57;4.83;;;;;;;-145.69;100.00;72528.81;5052881;28;20203;-79
2022/10/09 05:41:03;;;;;;;15.33;4.80;;;;;;;-145.69;100.00;72526.81;5052957;28;20214;-78
2022/10/09 05:43:33;;;;;;;16.10;5.20;;;;;;;-145.69;100.00;72520.84;5054594;28;20203;-79
2022/10/09 05:46:06;;;;;;;9.67;5.03;;;;;;;-145.69;100.00;72526.81;5072880;28;20322;-78
2022/10/09 05:48:33;;;;;;;12.23;5.00;;;;;;;-145.69;100.00;72522.84;5072954;28;20294;-78
2022/10/09 05:51:07;;;;;;;15.07;5.03;;;;;;;-145.69;100.00;72518.88;5072892;28;20205;-78
2022/10/09 05:53:34;;;;;;;14.23;5.77;;;;;;;-145.69;100.00;72516.88;5072224;28;20251;-78
2022/10/09 05:56:10;;;;;;;18.30;5.57;;;;;;;-145.69;100.00;72516.88;5065689;28;20257;-79
2022/10/09 05:58:38;;;;;;;13.80;5.50;;;;;;;-145.69;100.00;72508.91;5052970;28;20202;-78
2022/10/09 06:01:04;;;;;;;12.33;5.47;;;;;;;-145.69;100.00;72522.84;5052776;28;20210;-78
2022/10/09 06:03:31;;;;;;;13.67;5.53;;;;;;;-145.69;100.00;72512.91;5052577;28;20203;-78
2022/10/09 06:05:59;;;;;;;14.60;5.27;;;;;;;-145.69;100.00;72487.00;5052361;28;20222;-78
2022/10/09 06:08:26;;;;;;;11.93;5.50;;;;;;;-145.69;100.00;72491.00;5061967;28;20290;-78
2022/10/09 06:10:53;;;;;;;24.37;6.33;;;;;;;-145.69;100.00;72504.94;5072839;28;20229;-79
2022/10/09 06:13:19;;;;;;;14.33;5.63;;;;;;;-145.69;100.00;72487.00;5074118;28;20218;-79
2022/10/09 06:15:53;;;;;;;15.73;5.53;;;;;;;-145.69;100.00;72493.00;5076700;28;20578;-79
2022/10/09 06:18:20;;;;;;;16.67;5.97;;;;;;;-145.69;100.00;72485.03;5076471;28;20226;-79
2022/10/09 06:20:53;;;;;;;15.63;5.67;;;;;;;-145.69;100.00;72485.03;5064956;28;20195;-79
2022/10/09 06:23:20;;;;;;;13.47;5.77;;;;;;;-145.69;100.00;72485.03;5056767;28;20285;-79
2022/10/09 06:25:51;;;;;;;11.77;5.53;;;;;;;-145.69;100.00;72477.06;5056501;28;20231;-78
2022/10/09 06:28:18;;;;;;;16.10;5.53;;;;;;;-145.69;100.00;72465.13;5056491;28;20235;-79
2022/10/09 06:30:44;;;;;;;11.47;4.97;;;;;;;-145.69;100.00;72465.13;5056231;28;20211;-79
2022/10/09 06:33:12;;;;;;;17.80;5.10;;;;;;;-145.69;100.00;72465.13;5070105;28;20672;-79
2022/10/09 06:35:39;;;;;;;11.00;4.60;;;;;;;-145.69;100.00;72461.13;5076605;28;20211;-79
2022/10/09 06:38:05;;;;;;;16.97;4.93;;;;;;;-145.69;100.00;72465.13;5076068;28;20202;-78
2022/10/09 06:40:35;;;;;;;14.20;5.13;;;;;;;-145.69;100.00;72453.19;5076510;28;20218;-78
2022/10/09 06:43:01;;;;;;;8.03;4.23;;;;;;;-145.69;100.00;72433.28;5076313;28;20199;-78
2022/10/09 06:45:28;;;;;;;9.57;4.23;;;;;;;-145.69;100.00;72437.25;5057403;28;20203;-78
2022/10/09 06:47:55;;;;;;;18.30;4.73;;;;;;;-145.69;100.00;72419.34;5055789;28;20700;-78
2022/10/09 06:50:23;;;;;;;16.27;4.30;;;;;;;-145.69;100.00;72429.28;5056129;28;20294;-78
2022/10/09 06:52:50;;;;;;;15.23;4.97;;;;;;;-145.69;100.00;72433.28;5056228;28;20199;-77
2022/10/09 06:55:17;;;;;;;10.90;4.10;;;;;;;-145.69;100.00;72437.25;5055811;28;20242;-78
2022/10/09 06:57:43;;;;;;;13.70;4.40;;;;;;;-145.69;100.00;72435.28;5074998;28;20201;-78
2022/10/09 07:00:11;;;;;;;16.07;4.27;;;;;;;-145.69;100.00;72407.41;5075722;28;20207;-78
2022/10/09 07:02:38;;;;;;;13.70;4.43;;;;;;;-145.69;100.00;72421.34;5075803;28;20202;-77
2022/10/09 07:05:05;;;;;;;9.97;3.90;;;;;;;-145.69;100.00;72427.31;5042909;28;20200;-76
2022/10/09 07:07:33;;;;;;;10.43;4.03;;;;;;;-145.69;100.00;72421.34;5040503;28;20230;-76
2022/10/09 07:10:00;;;;;;;9.80;4.10;;;;;;;-145.69;100.00;72415.38;5055332;28;20272;-78
2022/10/09 07:12:26;;;;;;;15.57;3.87;;;;;;;-145.69;100.00;72417.34;5055600;28;20620;-76
2022/10/09 07:14:53;;;;;;;9.47;4.03;;;;;;;-145.69;100.00;72401.44;5055075;28;20709;-77
2022/10/09 07:17:19;;;;;;;11.03;3.60;;;;;;;-145.69;100.00;72387.50;5055526;28;20235;-77
2022/10/09 07:19:46;;;;;;;8.90;3.57;;;;;;;-145.69;100.00;72385.50;5061011;28;20191;-78
2022/10/09 07:22:12;;;;;;;10.70;3.60;;;;;;;-145.69;100.00;72379.53;5075338;28;20776;-77
2022/10/09 07:24:40;;;;;;;11.73;4.40;;;;;;;-145.69;100.00;72369.59;5075142;28;20211;-78
2022/10/09 07:27:07;;;;;;;15.00;3.43;;;;;;;-145.69;100.00;72371.56;5075280;28;20230;-78
2022/10/09 07:29:36;;;;;;;10.50;3.70;;;;;;;-145.69;100.00;72359.63;5075135;28;20290;-78
2022/10/09 07:32:12;;;;;;;9.67;3.40;;;;;;;-145.69;100.00;72337.75;5066452;28;20200;-78
2022/10/09 07:34:38;;;;;;;12.20;3.37;;;;;;;-145.69;100.00;72317.84;5055211;28;20726;-78
2022/10/09 07:37:15;;;;;;;7.33;3.47;;;;;;;-145.69;100.00;72301.91;5055120;28;20200;-78
2022/10/09 07:39:43;;;;;;;9.20;3.73;;;;;;;-145.69;100.00;72287.97;5054922;28;20199;-78
2022/10/09 07:42:10;;;;;;;9.10;3.37;;;;;;;-145.69;100.00;72286.00;5055286;28;20601;-78
2022/10/09 07:44:39;;;;;;;9.67;3.13;;;;;;;-145.69;100.00;72274.06;5065630;28;20203;-79
2022/10/09 07:47:05;;;;;;;7.00;3.30;;;;;;;-145.69;100.00;72266.09;5075116;28;20238;-78
2022/10/09 07:49:32;;;;;;;7.27;3.60;;;;;;;-145.69;100.00;72262.09;5075033;28;20259;-78
2022/10/09 07:51:59;;;;;;;7.43;2.80;;;;;;;-145.69;100.00;72256.13;5074973;28;20199;-78
2022/10/09 07:54:25;;;;;;;9.53;3.20;;;;;;;-145.69;100.00;72240.22;5074848;28;20230;-78
2022/10/09 07:56:56;;;;;;;7.80;3.03;;;;;;;-145.69;100.00;72228.28;5059304;28;20195;-78
2022/10/09 07:59:22;;;;;;;9.43;3.30;;;;;;;-145.69;100.00;72216.34;5054873;28;20204;-78
2022/10/09 08:01:49;;;;;;;10.27;3.27;;;;;;;-145.69;100.00;72218.31;5054669;28;20202;-78
2022/10/09 08:04:16;;;;;;;7.87;2.87;;;;;;;-145.69;100.00;72222.31;5054768;28;20210;-79
2022/10/09 08:06:42;;;;;;;8.37;3.13;;;;;;;-145.69;100.00;72224.28;5054548;28;20223;-79
2022/10/09 08:09:09;;;;;;;7.23;2.77;;;;;;;-145.69;100.00;72206.38;5070013;28;20194;-78
2022/10/09 08:11:39;;;;;;;6.80;2.67;;;;;;;-145.69;100.00;72206.38;5074573;28;20590;-78
2022/10/09 08:14:08;;;;;;;6.23;3.23;;;;;;;-145.69;100.00;72186.47;5074711;28;20293;-79
2022/10/09 08:16:34;;;;;;;8.67;2.93;;;;;;;-145.69;100.00;72174.53;5074356;28;20665;-79
2022/10/09 08:19:01;;;;;;;11.07;2.87;;;;;;;-145.69;100.00;72162.59;5074145;28;20327;-78
2022/10/09 08:21:29;;;;;;;9.70;2.33;;;;;;;-145.69;100.00;72168.56;5054677;28;20550;-78
2022/10/09 08:23:57;;;;;;;4.40;2.17;;;;;;;-145.69;100.00;72150.66;5054359;28;20210;-78
2022/10/09 08:26:25;;;;;;;7.37;2.47;;;;;;;-145.69;100.00;72152.66;5054007;28;20255;-79
2022/10/09 08:28:53;;;;;;;7.73;2.97;;;;;;;-145.69;100.00;72152.66;5053720;28;20231;-78
2022/10/09 08:31:22;;;;;;;5.27;2.50;;;;;;;-145.69;100.00;72134.72;5056164;28;20206;-78
2022/10/09 08:33:52;;;;;;;6.53;2.43;;;;;;;-145.69;100.00;72126.78;5073997;28;20203;-79
2022/10/09 08:36:18;;;;;;;10.03;2.47;;;;;;;-145.69;100.00;72130.75;5073326;28;20207;-79
2022/10/09 08:38:45;;;;;;;6.90;2.73;;;;;;;-145.69;100.00;72112.84;5074020;28;20233;-79
2022/10/09 08:41:16;;;;;;;7.27;2.40;;;;;;;-145.69;100.00;72106.88;5072387;28;20199;-78
2022/10/09 08:43:45;;;;;;;9.00;2.30;;;;;;;-145.69;100.00;72094.94;5074111;28;20202;-79
2022/10/09 08:46:23;;;;;;;7.20;2.40;;;;;;;-145.69;100.00;72090.94;5073443;28;20233;-78
2022/10/09 08:48:51;;;;;;;8.43;2.00;;;;;;;-145.69;100.00;72086.97;5073985;28;20277;-78
2022/10/09 08:51:25;;;;;;;7.07;2.30;;;;;;;-145.69;100.00;72082.97;5062859;28;20686;-78
2022/10/09 08:53:58;;;;;;;4.57;2.30;;;;;;;-145.69;100.00;72079.00;5053753;28;20684;-79
2022/10/09 08:56:27;;;;;;;5.20;2.20;;;;;;;-145.69;100.00;72079.00;5052995;28;20203;-79
2022/10/09 08:58:53;;;;;;;6.50;2.20;;;;;;;-145.69;100.00;72067.06;5053416;28;20235;-78
2022/10/09 09:01:33;;;;;;;7.93;2.47;;;;;;;-145.69;100.00;72043.19;5053491;28;20692;-79
2022/10/09 09:04:16;;;;;;;5.65;2.25;;;;;;;-145.69;100.00;72039.19;5039397;28;20524;-79
2022/10/09 09:06:50;;;;;;;6.57;1.90;;;;;;;-145.69;100.00;72029.25;5033532;28;20234;-78
2022/10/09 09:09:25;;;;;;;6.67;1.70;;;;;;;-145.69;100.00;72025.28;5033142;28;20662;-79
2022/10/09 09:11:58;;;;;;;7.20;2.40;;;;;;;-145.69;100.00;72011.34;5033736;28;20291;-78
2022/10/09 09:14:39;;;;;;;4.13;1.80;;;;;;;-145.69;100.00;72011.34;5038917;28;20199;-78
2022/10/09 09:17:14;;;;;;;8.57;1.80;;;;;;;-145.69;100.00;71957.59;5073449;28;20326;-80
2022/10/09 09:19:53;;;;;;;7.87;2.27;;;;;;;-145.69;100.00;71951.63;5073475;28;20202;-79
2022/10/09 09:22:25;;;;;;;8.03;1.80;;;;;;;-145.69;100.00;71935.72;5054095;28;20677;-79
2022/10/09 09:24:54;;;;;;;6.67;1.43;;;;;;;-145.69;100.00;71933.72;5052681;28;20654;-79
2022/10/09 09:27:27;;;;;;;10.60;1.93;;;;;;;-145.69;100.00;71937.69;5062511;28;20229;-80
2022/10/09 09:29:59;;;;;;;4.73;1.50;;;;;;;-145.69;100.00;71927.75;5073090;28;20202;-79
2022/10/09 09:32:29;;;;;;;4.10;1.70;;;;;;;-145.69;100.00;71909.84;5072921;28;20248;-79
2022/10/09 09:35:11;;;;;;;3.60;1.57;;;;;;;-145.69;100.00;71903.88;5072980;28;20287;-79
2022/10/09 09:37:37;;;;;;;5.60;1.73;;;;;;;-145.69;100.00;71887.94;5033139;28;20692;-80
2022/10/09 09:40:05;;;;;;;5.20;1.80;;;;;;;-145.69;100.00;71901.88;5032858;28;20206;-79
2022/10/09 09:42:32;;;;;;;5.00;1.75;;;;;;;-145.69;100.00;71899.88;5033023;28;20200;-79
2022/10/09 09:45:01;;;;;;;6.43;1.52;;;;;;;-145.69;100.00;71895.91;5032908;28;20281;-79
2022/10/09 09:47:34;;;;;;;6.80;1.57;;;;;;;-145.69;100.00;71878.00;5051758;28;20223;-79
2022/10/09 09:50:02;;;;;;;6.50;1.73;;;;;;;-145.69;100.00;71874.03;5052944;28;20658;-79
2022/10/09 09:52:31;;;;;;;6.30;1.53;;;;;;;-145.69;100.00;71868.06;5052833;28;20440;-79
2022/10/09 09:54:58;;;;;;;6.10;1.38;;;;;;;-145.69;100.00;71856.09;5052768;28;20204;-79
2022/10/09 09:57:32;;;;;;;5.25;2.00;;;;;;;-145.69;100.00;71844.16;5052262;28;20590;-79
2022/10/09 10:00:18;;;;;;;3.28;1.33;;;;;;;-145.69;100.00;71842.19;5032729;28;20686;-79
2022/10/09 10:02:46;;;;;;;5.82;1.55;;;;;;;-145.69;100.00;71834.22;5032952;28;20199;-79
2022/10/09 10:05:23;;;;;;;4.97;1.65;;;;;;;-145.69;100.00;71820.28;5032684;28;20228;-79
2022/10/09 10:07:50;;;;;;;4.97;1.55;;;;;;;-145.69;96.68;71824.25;5032903;28;20313;-81
2022/10/09 10:10:19;;;;;;;3.70;1.35;;;;;;;-145.69;98.33;71808.34;5038326;28;20195;-82
2022/10/09 10:12:53;;;;;;;7.70;1.70;;;;;;;-145.69;97.73;71828.25;5047109;28;20200;-79
2022/10/09 10:15:23;;;;;;;8.55;1.40;;;;;;;-145.69;95.40;71822.28;5044249;28;20199;-80
2022/10/09 10:18:00;;;;;;;4.75;1.33;;;;;;;-145.69;93.89;71806.34;5052333;28;20232;-78
2022/10/09 10:20:28;;;;;;;3.92;1.23;;;;;;;-145.69;91.44;71812.31;5052349;28;20195;-79
2022/10/09 10:22:57;;;;;;;3.38;1.23;;;;;;;-145.69;92.85;71808.34;5052754;28;20210;-79
2022/10/09 10:25:29;;;;;;;4.35;1.50;;;;;;;-145.69;94.88;71782.47;5054292;28;20209;-79
2022/10/09 10:28:03;;;;;;;5.82;1.42;;;;;;;-145.69;90.67;71776.50;5052234;28;20230;-79
2022/10/09 10:30:31;;;;;;;4.80;1.40;;;;;;;-145.69;91.30;71772.53;5051944;28;20462;-79
2022/10/09 10:33:08;;;;;;;2.58;1.15;;;;;;;-145.69;91.31;71760.59;5052157;28;20442;-79
2022/10/09 10:35:37;;;;;;;4.72;1.38;;;;;;;-145.69;88.89;71744.66;5069330;28;20282;-79
2022/10/09 10:38:10;;;;;;;3.58;1.20;;;;;;;-145.69;88.79;71732.72;5072563;28;20198;-79
2022/10/09 10:40:43;;;;;;;2.28;1.05;;;;;;;-145.69;88.73;71742.69;5072342;28;20199;-79
2022/10/09 10:43:31;;;;;;;5.40;1.10;;;;;;;-145.69;89.16;71744.66;5072146;28;20205;-79
2022/10/09 10:46:02;;;;;;;3.45;1.35;;;;;;;-145.69;89.33;71752.63;5067432;28;20708;-79
2022/10/09 10:48:38;;;;;;;5.13;1.23;;;;;;;-145.69;86.37;71756.59;5052366;28;20253;-79
2022/10/09 10:51:17;;;;;;;4.90;1.10;;;;;;;-145.69;88.58;71754.63;5052173;28;20604;-79
2022/10/09 10:53:56;;;;;;;6.43;1.38;;;;;;;-145.69;89.15;71754.63;5052035;28;20290;-80
2022/10/09 10:56:29;;;;;;;3.38;0.90;;;;;;;-145.69;88.99;71744.66;5052118;28;20247;-77
2022/10/09 10:59:11;;;;;;;2.33;1.10;;;;;;;-145.69;88.52;71726.75;5064471;28;20672;-78
2022/10/09 11:01:44;;;;;;;3.47;1.20;;;;;;;-145.69;84.99;71724.75;5075220;28;20202;-77
2022/10/09 11:04:39;;;;;;;4.95;1.20;;;;;;;-145.69;83.58;71716.81;5075705;28;20201;-77
2022/10/09 11:07:16;;;;;;;4.57;1.92;;;;;;;-145.69;83.75;71708.84;5075759;28;20222;-77
2022/10/09 11:09:52;;;;;;;2.22;1.00;;;;;;;-145.69;85.19;71698.91;5058480;28;20230;-76
2022/10/09 11:12:25;;;;;;;2.03;1.17;;;;;;;-145.69;83.58;71712.81;5075557;28;20202;-77
2022/10/09 11:15:01;;;;;;;3.15;1.00;;;;;;;-145.69;83.82;71675.00;5075735;28;20293;-77